Time;durP1;ratioP1;P1;durP2;ratioP2;P2;SDS_P1;SDS_P2;PMS_P1;PMS_P2;Temp;Humidity;BMP_temperature;BMP_pressure;BME280_temperature;BME280_humidity;BME280_pressure;Samples;Min_cycle;Max_cycle;Signal;HPM_P1;HPM_P2
2022/06/01 00:00:37;;;;;;;4.82;1.60;;;;;;;14.48;53.10;101015.22;4995454;28;20060;-71
2022/06/01 00:03:04;;;;;;;5.70;1.65;;;;;;;14.39;53.63;101017.22;4995598;28;20046;-71
2022/06/01 00:05:32;;;;;;;2.88;1.42;;;;;;;14.81;52.50;101018.19;4995733;28;20046;-71
2022/06/01 00:07:59;;;;;;;6.25;1.60;;;;;;;14.61;52.75;101014.19;4977153;28;20050;-70
2022/06/01 00:10:27;;;;;;;4.75;1.30;;;;;;;14.52;53.56;101019.78;4992870;28;20057;-63
2022/06/01 00:12:55;;;;;;;6.82;1.77;;;;;;;14.87;52.50;101020.41;4995553;28;20042;-62
2022/06/01 00:15:24;;;;;;;4.68;1.20;;;;;;;15.23;51.29;101015.16;4995578;28;20054;-62
2022/06/01 00:17:52;;;;;;;3.67;1.40;;;;;;;15.11;51.59;101015.06;5010113;28;20062;-70
2022/06/01 00:20:19;;;;;;;5.38;1.40;;;;;;;14.81;52.39;101029.25;4994179;28;20054;-63
2022/06/01 00:22:47;;;;;;;5.47;1.48;;;;;;;15.11;51.74;101023.41;4995203;28;20042;-70
2022/06/01 00:25:15;;;;;;;6.55;1.42;;;;;;;15.22;51.25;101021.84;5010348;28;20050;-70
2022/06/01 00:27:42;;;;;;;8.77;1.63;;;;;;;14.98;51.89;101026.41;4998346;28;20057;-70
2022/06/01 00:30:13;;;;;;;7.35;2.08;;;;;;;14.92;52.38;101027.75;4998141;28;20058;-71
2022/06/01 00:32:41;;;;;;;5.03;1.40;;;;;;;14.87;52.21;101027.94;4999376;28;20050;-70
2022/06/01 00:35:10;;;;;;;4.70;1.33;;;;;;;15.05;52.11;101024.72;4999226;28;20046;-70
2022/06/01 00:37:38;;;;;;;5.55;1.60;;;;;;;14.98;52.38;101023.63;4998610;28;20058;-63
2022/06/01 00:40:07;;;;;;;4.70;1.50;;;;;;;15.07;51.98;101030.75;4998072;28;20466;-71
2022/06/01 00:42:36;;;;;;;4.30;1.30;;;;;;;14.89;52.49;101015.34;5012876;28;20074;-71
2022/06/01 00:45:05;;;;;;;8.05;2.13;;;;;;;14.82;52.96;101019.81;4999244;28;20065;-71
2022/06/01 00:47:32;;;;;;;6.50;1.90;;;;;;;14.68;53.36;101022.00;4997602;28;20069;-69
2022/06/01 00:50:14;;;;;;;5.68;1.55;;;;;;;14.78;53.21;101027.16;4998998;28;20053;-70
2022/06/01 00:52:45;;;;;;;5.22;1.77;;;;;;;14.63;53.41;101018.25;4997754;28;20050;-63
2022/06/01 00:55:18;;;;;;;7.72;1.33;;;;;;;14.60;53.39;101021.72;4996555;28;20054;-62
2022/06/01 00:57:47;;;;;;;4.13;1.25;;;;;;;14.65;53.55;101017.94;4998531;28;20529;-62
2022/06/01 01:00:20;;;;;;;5.93;1.42;;;;;;;14.80;53.08;101020.16;4980658;28;20054;-64
2022/06/01 01:02:49;;;;;;;8.73;1.50;;;;;;;14.52;53.94;101017.00;4997442;28;20054;-63
2022/06/01 01:05:17;;;;;;;4.20;1.52;;;;;;;14.49;54.12;101019.63;4981361;28;20050;-70
2022/06/01 01:07:45;;;;;;;3.30;1.52;;;;;;;14.62;53.67;101022.19;4996371;28;20054;-63
2022/06/01 01:10:15;;;;;;;5.72;1.55;;;;;;;14.84;53.17;101014.72;4996966;28;20065;-63
2022/06/01 01:12:58;;;;;;;3.80;1.40;;;;;;;14.62;53.56;101019.44;4994965;28;20056;-70
2022/06/01 01:15:31;;;;;;;3.92;1.35;;;;;;;14.93;53.06;101015.50;4997302;28;20062;-70
2022/06/01 01:18:00;;;;;;;6.95;1.65;;;;;;;14.87;53.46;101019.63;5013526;28;20053;-70
2022/06/01 01:20:27;;;;;;;4.40;1.60;;;;;;;14.77;53.71;101015.25;4971910;28;20051;-71
2022/06/01 01:23:19;;;;;;;6.88;2.00;;;;;;;15.01;52.96;101018.22;4966585;28;20057;-72
2022/06/01 01:25:46;;;;;;;5.80;1.50;;;;;;;15.02;52.93;101017.09;4997236;28;20046;-71
2022/06/01 01:28:14;;;;;;;7.85;1.80;;;;;;;15.03;52.76;101006.81;4980462;28;20065;-64
2022/06/01 01:30:43;;;;;;;5.78;1.50;;;;;;;14.84;53.38;101012.78;4972403;28;20062;-64
2022/06/01 01:33:13;;;;;;;5.32;1.73;;;;;;;14.72;53.90;101017.41;4978902;28;20050;-62
2022/06/01 01:35:42;;;;;;;5.13;1.63;;;;;;;14.55;54.55;101015.53;4991865;28;20057;-63
2022/06/01 01:38:21;;;;;;;6.05;1.80;;;;;;;14.89;53.72;101018.13;4979025;28;20059;-70
2022/06/01 01:41:10;;;;;;;3.80;1.52;;;;;;;14.95;53.64;101014.03;4993472;28;20051;-63
2022/06/01 01:43:45;;;;;;;4.43;1.40;;;;;;;15.01;53.77;101017.44;4978405;28;20054;-64
2022/06/01 01:46:12;;;;;;;6.47;1.80;;;;;;;14.93;53.79;101013.53;4963539;28;20157;-62
2022/06/01 01:48:39;;;;;;;5.32;1.80;;;;;;;14.94;53.96;101019.91;4993461;28;20050;-63
2022/06/01 01:51:07;;;;;;;4.38;1.80;;;;;;;15.06;53.66;101022.78;4977384;28;20061;-63
2022/06/01 01:53:34;;;;;;;5.18;1.73;;;;;;;15.11;53.60;101017.84;4978335;28;20505;-62
2022/06/01 01:56:28;;;;;;;3.65;1.48;;;;;;;14.80;54.25;101014.63;4978554;28;20066;-63
2022/06/01 01:59:43;;;;;;;5.93;1.90;;;;;;;14.86;54.33;101006.88;4972014;28;20062;-71
2022/06/01 02:02:23;;;;;;;5.88;1.63;;;;;;;14.92;54.06;101006.38;4975333;28;20058;-63
2022/06/01 02:07:59;;;;;;;7.47;2.00;;;;;;;14.71;54.91;100999.16;4997301;28;20054;-71
2022/06/01 02:13:16;;;;;;;4.68;1.70;;;;;;;14.41;55.43;100993.59;4997835;28;20054;-70
2022/06/01 02:15:48;;;;;;;7.30;1.50;;;;;;;14.49;55.13;100992.72;4996380;28;20062;-71
2022/06/01 02:18:28;;;;;;;5.07;1.50;;;;;;;14.42;55.27;100992.44;4995270;28;20051;-63
2022/06/01 02:20:59;;;;;;;8.02;1.70;;;;;;;14.34;55.37;100987.75;4985547;28;20054;-72
2022/06/01 02:23:31;;;;;;;4.85;1.40;;;;;;;14.29;55.93;100989.88;4996005;28;20077;-71
2022/06/01 02:26:00;;;;;;;4.20;1.58;;;;;;;14.13;56.13;100995.13;4984018;28;20073;-71
2022/06/01 02:28:29;;;;;;;4.20;1.58;;;;;;;14.13;56.55;100986.81;4960774;28;20042;-63
2022/06/01 02:30:56;;;;;;;3.97;1.60;;;;;;;14.07;56.76;100987.31;4977873;28;20513;-65
2022/06/01 02:33:27;;;;;;;5.93;1.80;;;;;;;14.07;57.12;100992.84;4991611;28;20057;-62
2022/06/01 02:35:58;;;;;;;6.90;1.75;;;;;;;14.24;56.43;100992.81;4993535;28;20050;-63
2022/06/01 02:38:30;;;;;;;6.60;1.95;;;;;;;14.31;56.37;100985.63;4985755;28;20085;-63
2022/06/01 02:41:00;;;;;;;4.63;1.60;;;;;;;14.29;56.46;100987.09;4960493;28;20055;-64
2022/06/01 02:43:28;;;;;;;3.53;1.80;;;;;;;14.20;56.70;100984.34;4943346;28;20054;-61
2022/06/01 02:45:56;;;;;;;5.00;2.00;;;;;;;14.29;56.46;100995.41;4959982;28;20051;-69
2022/06/01 02:48:24;;;;;;;4.35;1.55;;;;;;;14.29;56.70;100990.69;4976078;28;20478;-62
2022/06/01 02:50:51;;;;;;;4.20;1.80;;;;;;;14.13;57.33;100991.53;4976829;28;20059;-62
2022/06/01 02:53:18;;;;;;;4.28;1.60;;;;;;;14.24;57.30;100985.28;4975355;28;20055;-70
2022/06/01 02:55:46;;;;;;;4.85;1.80;;;;;;;14.28;57.03;100982.69;4975710;28;20066;-63
2022/06/01 02:58:13;;;;;;;4.78;1.90;;;;;;;14.34;56.78;100984.16;4975916;28;20054;-69
2022/06/01 03:00:41;;;;;;;6.97;2.10;;;;;;;14.12;57.67;100978.81;4977326;28;20051;-65
2022/06/01 03:03:10;;;;;;;4.10;1.80;;;;;;;14.18;57.39;100971.94;4976019;28;20055;-63
2022/06/01 03:05:40;;;;;;;4.55;1.50;;;;;;;14.12;57.46;100971.31;4976517;28;20050;-63
2022/06/01 03:08:08;;;;;;;6.22;1.70;;;;;;;14.12;57.86;100976.06;4957549;29;20051;-63
2022/06/01 03:10:36;;;;;;;5.95;1.90;;;;;;;14.07;57.61;100974.25;4957722;29;20066;-63
2022/06/01 03:13:21;;;;;;;5.43;2.00;;;;;;;13.81;58.79;100981.81;4956788;29;20507;-63
2022/06/01 03:15:50;;;;;;;5.72;2.13;;;;;;;13.81;nan;100986.56;4967906;28;20058;-63
2022/06/01 03:18:18;;;;;;;5.93;1.85;;;;;;;13.74;58.92;100991.78;4976706;28;20039;-70
2022/06/01 03:20:45;;;;;;;4.18;1.73;;;;;;;13.80;58.79;100991.28;4976678;28;20063;-62
2022/06/01 03:23:13;;;;;;;8.38;1.70;;;;;;;13.65;59.38;100997.31;4976983;28;20062;-63
2022/06/01 03:25:41;;;;;;;4.35;1.70;;;;;;;13.71;58.91;100993.25;4974803;28;20046;-72
2022/06/01 03:28:09;;;;;;;4.10;1.88;;;;;;;13.63;58.98;100990.47;4959511;28;20054;-62
2022/06/01 03:30:36;;;;;;;5.43;1.80;;;;;;;13.57;59.49;100998.94;4975468;28;20058;-71
2022/06/01 03:33:04;;;;;;;5.90;2.03;;;;;;;13.39;59.83;101000.09;4976832;28;20099;-70
2022/06/01 03:35:32;;;;;;;4.45;1.75;;;;;;;13.39;60.01;101002.03;4957925;28;20051;-70
2022/06/01 03:38:00;;;;;;;6.80;1.83;;;;;;;13.55;59.77;101008.72;4982668;28;20062;-70
2022/06/01 03:40:31;;;;;;;5.72;1.90;;;;;;;13.53;59.86;100999.91;4995897;28;20061;-71
2022/06/01 03:42:59;;;;;;;5.05;1.80;;;;;;;13.45;59.83;101003.50;4996125;28;20054;-71
2022/06/01 03:48:14;;;;;;;9.32;2.20;;;;;;;13.26;61.14;101005.78;4994517;28;20058;-63
2022/06/01 03:50:44;;;;;;;6.22;1.92;;;;;;;13.28;60.95;101007.09;4995842;28;20045;-63
2022/06/01 03:53:12;;;;;;;6.68;1.77;;;;;;;13.47;60.38;101015.06;4995437;28;20484;-63
2022/06/01 03:55:40;;;;;;;7.13;2.00;;;;;;;13.55;60.15;101019.78;4994715;28;20411;-63
2022/06/01 03:58:20;;;;;;;8.15;1.90;;;;;;;13.48;60.43;101022.22;4995750;28;20050;-70
2022/06/01 04:00:48;;;;;;;;;;;;;;;13.37;60.48;101016.19;4993035;28;20082;-63
2022/06/01 04:03:16;;;;;;;7.88;2.25;;;;;;;13.12;61.14;101030.81;4978354;28;19929;-63
2022/06/01 04:05:44;;;;;;;5.75;2.17;;;;;;;13.26;60.96;101022.38;4995564;28;20046;-63
2022/06/01 04:08:11;;;;;;;4.95;1.60;;;;;;;13.39;60.70;101016.69;5009757;28;20050;-64
2022/06/01 04:10:43;;;;;;;6.20;2.35;;;;;;;13.35;60.44;101020.44;4995187;28;20065;-63
2022/06/01 04:13:11;;;;;;;5.15;2.03;;;;;;;13.36;60.75;101016.53;4992371;28;20058;-63
2022/06/01 04:15:40;;;;;;;6.18;1.92;;;;;;;13.38;60.60;101017.84;4994285;28;20053;-70
2022/06/01 04:18:08;;;;;;;4.53;1.80;;;;;;;13.08;61.46;101024.31;4994262;28;20386;-63
2022/06/01 04:20:36;;;;;;;5.93;2.40;;;;;;;12.81;62.34;101026.47;4971314;28;20047;-62
2022/06/01 04:23:03;;;;;;;4.18;1.92;;;;;;;13.05;62.14;101032.44;4971188;28;20061;-62
2022/06/01 04:25:30;;;;;;;8.80;2.10;;;;;;;13.24;61.63;101027.41;4995385;28;20038;-63
2022/06/01 04:27:58;;;;;;;4.90;2.22;;;;;;;13.37;61.15;101029.22;4995168;28;20047;-63
2022/06/01 04:30:26;;;;;;;6.57;2.15;;;;;;;13.20;61.76;101043.03;4994779;28;20054;-64
2022/06/01 04:32:53;;;;;;;3.85;2.00;;;;;;;13.23;61.61;101034.88;4991935;28;20054;-71
2022/06/01 04:35:22;;;;;;;5.70;2.10;;;;;;;13.35;61.52;101031.50;4994017;28;20047;-63
2022/06/01 04:37:50;;;;;;;8.05;2.40;;;;;;;13.46;61.25;101044.69;4995035;28;20054;-71
2022/06/01 04:40:19;;;;;;;6.68;2.20;;;;;;;13.37;61.24;101046.63;4995444;28;20497;-63
2022/06/01 04:42:46;;;;;;;7.10;2.40;;;;;;;13.49;61.30;101054.31;4994106;28;20081;-63
2022/06/01 04:45:15;;;;;;;8.55;2.22;;;;;;;13.50;60.56;101045.69;5008056;28;20046;-63
2022/06/01 04:47:43;;;;;;;4.72;1.83;;;;;;;13.52;60.39;101048.94;5010125;28;20054;-62
2022/06/01 04:50:11;;;;;;;8.90;2.42;;;;;;;13.42;60.81;101046.47;4977222;28;20062;-72
2022/06/01 04:52:41;;;;;;;5.03;2.25;;;;;;;13.37;61.01;101057.69;4995271;28;20050;-71
2022/06/01 04:55:08;;;;;;;5.65;2.40;;;;;;;13.45;61.26;101054.13;4976893;28;20046;-71
2022/06/01 04:57:37;;;;;;;7.38;1.90;;;;;;;13.42;61.07;101062.28;4977601;28;20050;-72
2022/06/01 05:00:05;;;;;;;9.40;2.72;;;;;;;13.61;60.49;101061.94;4978041;28;20065;-71
2022/06/01 05:02:33;;;;;;;6.75;2.47;;;;;;;13.20;61.92;101077.03;4994173;28;20050;-62
2022/06/01 05:05:00;;;;;;;6.40;2.20;;;;;;;13.34;61.70;101065.81;4995210;28;20046;-71
2022/06/01 05:07:28;;;;;;;4.70;2.25;;;;;;;13.18;61.99;101071.00;4993422;28;20054;-72
2022/06/01 05:09:55;;;;;;;8.90;2.45;;;;;;;13.37;61.83;101073.50;4994657;28;20054;-71
2022/06/01 05:12:22;;;;;;;6.45;2.38;;;;;;;13.71;61.12;101078.22;4996168;28;20197;-72
2022/06/01 05:14:50;;;;;;;5.50;2.40;;;;;;;13.92;60.63;101087.53;4998680;28;20046;-71
2022/06/01 05:17:19;;;;;;;12.63;5.32;;;;;;;13.80;60.27;101079.88;4979680;28;20540;-65
2022/06/01 05:19:49;;;;;;;14.38;4.50;;;;;;;13.92;60.08;101077.25;4980627;28;20058;-64
2022/06/01 05:22:17;;;;;;;10.45;3.38;;;;;;;14.00;59.31;101078.41;4974583;28;20051;-63
2022/06/01 05:24:44;;;;;;;5.85;2.55;;;;;;;13.86;59.61;101075.00;4959619;29;20074;-63
2022/06/01 05:27:11;;;;;;;11.90;2.47;;;;;;;13.73;60.08;101078.72;4973908;28;20059;-64
2022/06/01 05:29:39;;;;;;;12.02;3.03;;;;;;;13.70;60.44;101074.69;4982311;28;20054;-63
2022/06/01 05:32:06;;;;;;;5.47;2.50;;;;;;;14.12;59.00;101075.78;4996650;28;20422;-62
2022/06/01 05:34:33;;;;;;;6.32;2.70;;;;;;;14.03;59.15;101066.66;4998381;28;20065;-63
2022/06/01 05:37:01;;;;;;;9.52;3.30;;;;;;;14.12;59.17;101071.03;4996636;28;20061;-71
2022/06/01 05:39:28;;;;;;;8.25;3.10;;;;;;;14.13;59.35;101074.63;4995925;28;20414;-70
2022/06/01 05:41:56;;;;;;;8.27;2.85;;;;;;;14.07;59.42;101068.44;4998170;28;20370;-71
2022/06/01 05:44:30;;;;;;;12.77;2.65;;;;;;;14.34;58.70;101061.75;4998266;28;20113;-70
2022/06/01 05:46:59;;;;;;;12.80;2.97;;;;;;;14.26;58.77;101070.91;4997072;28;20042;-70
2022/06/01 05:49:26;;;;;;;12.25;2.92;;;;;;;14.42;58.55;101064.47;4997812;28;20624;-70
2022/06/01 05:51:53;;;;;;;11.68;2.70;;;;;;;14.63;57.92;101067.34;4998228;28;20065;-71
2022/06/01 05:54:21;;;;;;;9.45;2.92;;;;;;;14.62;57.48;101061.00;4996910;28;20061;-71
2022/06/01 05:56:48;;;;;;;7.70;2.70;;;;;;;14.59;57.01;101061.66;4998404;28;20049;-63
2022/06/01 05:59:16;;;;;;;9.27;2.53;;;;;;;14.65;57.12;101065.06;4976661;28;20054;-64
2022/06/01 06:01:43;;;;;;;6.38;2.42;;;;;;;14.50;57.42;101066.44;4993230;28;20058;-63
2022/06/01 06:04:11;;;;;;;29.95;4.25;;;;;;;14.41;57.50;101065.66;4978279;28;20050;-63
2022/06/01 06:06:39;;;;;;;17.77;3.53;;;;;;;14.29;57.38;101064.69;4978182;28;20069;-64
2022/06/01 06:09:08;;;;;;;15.15;3.13;;;;;;;14.49;57.18;101066.75;4978832;28;20554;-63
2022/06/01 06:11:37;;;;;;;12.73;2.72;;;;;;;14.89;56.01;101070.03;5012619;28;20058;-62
2022/06/01 06:14:05;;;;;;;8.32;2.00;;;;;;;14.98;54.68;101079.09;4995545;28;20069;-63
2022/06/01 06:16:42;;;;;;;5.03;1.80;;;;;;;14.97;54.31;101070.00;4979577;28;20409;-63
2022/06/01 06:19:14;;;;;;;5.78;1.80;;;;;;;14.98;53.66;101074.38;4967953;28;20051;-64
2022/06/01 06:21:42;;;;;;;7.68;1.77;;;;;;;15.24;53.21;101063.13;4957001;29;20055;-65
2022/06/01 06:24:15;;;;;;;8.55;2.22;;;;;;;15.38;52.48;101066.47;4959668;28;20062;-63
2022/06/01 06:26:43;;;;;;;5.75;1.83;;;;;;;15.32;52.09;101070.59;5012672;28;20046;-64
2022/06/01 06:29:12;;;;;;;6.70;1.70;;;;;;;15.17;52.29;101060.06;4997382;28;20058;-63
2022/06/01 06:31:40;;;;;;;7.07;1.67;;;;;;;15.02;51.60;101071.75;4979802;28;20621;-64
2022/06/01 06:34:17;;;;;;;4.28;1.48;;;;;;;14.95;52.31;101069.50;4994589;28;20292;-62
2022/06/01 06:36:45;;;;;;;5.70;1.95;;;;;;;14.59;53.10;101069.97;5011830;28;20058;-64
2022/06/01 06:39:13;;;;;;;4.05;1.10;;;;;;;14.65;53.22;101071.44;4996301;28;20050;-62
2022/06/01 06:41:41;;;;;;;3.70;1.10;;;;;;;14.62;52.88;101072.09;4995696;28;20066;-63
2022/06/01 06:44:08;;;;;;;4.95;1.48;;;;;;;14.36;53.63;101081.63;5011895;28;20490;-63
2022/06/01 06:46:36;;;;;;;3.80;1.20;;;;;;;14.43;53.68;101082.75;4994667;28;20074;-63
2022/06/01 06:49:03;;;;;;;4.47;1.35;;;;;;;14.42;54.23;101086.66;4995363;28;20659;-63
2022/06/01 06:51:35;;;;;;;6.40;1.40;;;;;;;14.79;53.39;101087.03;4996793;28;20520;-63
2022/06/01 06:54:02;;;;;;;5.28;1.30;;;;;;;14.73;53.23;101085.59;4996771;28;20054;-63
2022/06/01 06:56:30;;;;;;;4.97;1.95;;;;;;;14.71;53.40;101088.69;4996628;28;20051;-63
2022/06/01 06:58:57;;;;;;;4.85;1.40;;;;;;;15.05;53.07;101084.94;5009245;28;20058;-64
2022/06/01 07:01:24;;;;;;;6.03;1.58;;;;;;;15.37;52.01;101093.44;4978847;28;20062;-64
2022/06/01 07:03:52;;;;;;;5.10;1.42;;;;;;;15.51;51.78;101090.41;4996381;28;20054;-63
2022/06/01 07:06:23;;;;;;;5.43;1.40;;;;;;;15.09;52.58;101089.50;5011040;28;20054;-63
2022/06/01 07:08:53;;;;;;;7.25;1.45;;;;;;;15.00;52.42;101088.72;4993111;28;20137;-63
2022/06/01 07:11:21;;;;;;;;;;;;;;;14.93;53.21;101093.16;4995751;28;20489;-63
2022/06/01 07:13:49;;;;;;;7.82;2.38;;;;;;;14.74;53.36;101107.44;4978975;28;19922;-66
2022/06/01 07:16:24;;;;;;;6.60;1.88;;;;;;;14.87;53.44;101094.50;4996470;28;20057;-63
2022/06/01 07:18:55;;;;;;;7.82;1.40;;;;;;;15.19;52.63;101094.66;4985956;28;20067;-63
2022/06/01 07:21:23;;;;;;;5.85;1.40;;;;;;;15.45;51.84;101094.53;4994027;28;20057;-64
2022/06/01 07:23:51;;;;;;;4.53;1.48;;;;;;;15.66;51.22;101090.63;4994986;28;20061;-64
2022/06/01 07:26:25;;;;;;;8.70;2.25;;;;;;;16.01;50.69;101085.59;4996174;28;20046;-63
2022/06/01 07:28:53;;;;;;;9.32;1.58;;;;;;;16.48;49.35;101094.47;5011071;28;20441;-64
2022/06/01 07:31:20;;;;;;;6.85;1.98;;;;;;;16.22;49.71;101091.94;4995941;28;20054;-64
2022/06/01 07:33:48;;;;;;;6.32;1.70;;;;;;;16.73;48.69;101096.16;4992925;28;20053;-64
2022/06/01 07:36:16;;;;;;;7.50;2.03;;;;;;;16.25;49.31;101094.03;4994752;28;20050;-64
2022/06/01 07:43:05;;;;;;;7.22;2.00;;;;;;;17.43;46.70;101094.91;4995870;28;20054;-65
2022/06/01 07:44:43;;;;;;;7.38;2.00;;;;;;;17.69;46.04;101101.75;5004875;28;20065;-64
2022/06/01 07:47:12;;;;;;;5.72;1.90;;;;;;;17.57;45.59;101098.16;4991771;28;20047;-64
2022/06/01 07:50:00;;;;;;;8.80;1.90;;;;;;;17.64;45.64;101101.16;4995318;28;20058;-64
2022/06/01 07:52:47;;;;;;;5.90;1.95;;;;;;;17.06;46.43;101102.47;4995647;28;20053;-64
2022/06/01 07:55:14;;;;;;;9.30;1.92;;;;;;;17.42;46.37;101096.88;5010853;28;20061;-65
2022/06/01 07:57:42;;;;;;;8.63;2.00;;;;;;;17.38;46.34;101101.50;4992068;28;20498;-64
2022/06/01 08:00:10;;;;;;;4.10;1.50;;;;;;;18.03;46.10;101091.97;4988514;28;20058;-64
2022/06/01 08:02:39;;;;;;;6.22;1.90;;;;;;;17.79;45.24;101092.88;4994419;28;20061;-64
2022/06/01 08:05:08;;;;;;;7.20;1.92;;;;;;;18.24;44.94;101089.81;5008514;28;20518;-63
2022/06/01 08:07:35;;;;;;;11.00;2.75;;;;;;;18.25;44.80;101088.66;5010305;28;20055;-63
2022/06/01 08:10:03;;;;;;;6.30;1.75;;;;;;;18.33;43.89;101084.06;4995873;28;20054;-64
2022/06/01 08:15:18;;;;;;;11.73;2.05;;;;;;;18.12;45.41;101084.28;4993174;28;20054;-65
2022/06/01 08:17:53;;;;;;;6.25;2.13;;;;;;;17.07;47.28;101090.16;4994097;28;20065;-64
2022/06/01 08:20:21;;;;;;;6.25;2.13;;;;;;;17.27;47.21;101091.19;4993254;28;20413;-65
2022/06/01 08:22:48;;;;;;;6.07;1.65;;;;;;;18.12;46.02;101089.84;4977012;28;20061;-64
2022/06/01 08:25:16;;;;;;;6.97;2.00;;;;;;;17.55;46.53;101084.59;4991184;28;20074;-64
2022/06/01 08:27:45;;;;;;;12.35;1.77;;;;;;;17.61;46.08;101090.69;4995189;28;20050;-64
2022/06/01 08:30:13;;;;;;;8.15;2.50;;;;;;;17.08;47.14;101086.22;4994134;28;20065;-64
2022/06/01 08:32:41;;;;;;;8.00;2.00;;;;;;;16.91;47.91;101092.03;4993353;28;20050;-64
2022/06/01 08:35:10;;;;;;;5.97;1.83;;;;;;;16.93;48.55;101091.66;4991347;28;20050;-64
2022/06/01 08:37:38;;;;;;;5.72;1.70;;;;;;;17.41;47.43;101086.91;4993140;28;20053;-63
2022/06/01 08:40:06;;;;;;;6.43;2.10;;;;;;;17.31;47.48;101087.34;4994150;28;20050;-64
2022/06/01 08:42:34;;;;;;;8.52;2.25;;;;;;;17.41;46.98;101089.69;4992097;28;20057;-64
2022/06/01 08:45:06;;;;;;;7.35;1.90;;;;;;;17.92;45.72;101074.16;4991088;28;20054;-64
2022/06/01 08:47:37;;;;;;;4.38;1.67;;;;;;;17.40;46.05;101099.19;5011191;28;20062;-65
2022/06/01 08:50:16;;;;;;;5.90;2.55;;;;;;;17.31;46.73;101084.56;5014054;28;20058;-64
2022/06/01 08:52:44;;;;;;;6.50;1.90;;;;;;;17.44;46.37;101083.41;4997766;28;20054;-63
2022/06/01 08:55:11;;;;;;;4.25;1.48;;;;;;;17.59;45.58;101088.28;5009633;28;20123;-64
2022/06/01 08:57:41;;;;;;;6.05;1.80;;;;;;;18.04;45.51;101085.25;4997652;28;20065;-65
2022/06/01 09:00:19;;;;;;;4.43;1.38;;;;;;;17.99;43.85;101080.72;4999234;28;20406;-64
2022/06/01 09:02:52;;;;;;;6.22;1.45;;;;;;;18.18;43.51;101082.06;4999022;28;20046;-64
2022/06/01 09:05:44;;;;;;;3.60;1.27;;;;;;;18.77;41.94;101074.53;4994319;28;20053;-64
2022/06/01 09:08:21;;;;;;;5.65;1.65;;;;;;;18.72;41.92;101078.41;4996671;28;20387;-64
2022/06/01 09:10:58;;;;;;;5.53;1.30;;;;;;;18.91;41.28;101081.28;4979488;28;20039;-65
2022/06/01 09:13:44;;;;;;;6.63;1.55;;;;;;;18.88;41.11;101076.41;4979315;28;20549;-64
2022/06/01 09:16:17;;;;;;;5.72;1.70;;;;;;;19.09;41.20;101074.16;4977778;28;20055;-72
2022/06/01 09:18:48;;;;;;;5.95;1.45;;;;;;;19.22;40.95;101088.00;4981954;28;20050;-70
2022/06/01 09:24:16;;;;;;;6.95;1.73;;;;;;;18.81;40.40;101081.03;4991782;28;20054;-70
2022/06/01 09:27:02;;;;;;;8.63;2.00;;;;;;;18.94;40.69;101082.53;4989633;28;20046;-70
2022/06/01 09:29:33;;;;;;;4.82;1.73;;;;;;;19.39;40.27;101082.88;4998596;28;20058;-71
2022/06/01 09:32:12;;;;;;;5.93;1.90;;;;;;;19.42;39.20;101084.94;4998630;28;20401;-71
2022/06/01 09:34:47;;;;;;;12.13;1.50;;;;;;;19.19;39.72;101081.19;4998215;28;20084;-70
2022/06/01 09:37:25;;;;;;;29.10;3.58;;;;;;;18.25;41.04;101090.63;4995759;28;20664;-72
2022/06/01 09:39:56;;;;;;;4.72;1.48;;;;;;;18.10;41.78;101102.53;4998315;28;20046;-70
2022/06/01 09:42:39;;;;;;;7.10;1.42;;;;;;;18.05;42.02;101094.41;4998593;28;20131;-72
2022/06/01 09:45:22;;;;;;;10.32;2.03;;;;;;;18.22;42.62;101089.34;4998259;28;20057;-71
2022/06/01 09:47:52;;;;;;;10.48;1.80;;;;;;;17.86;43.27;101090.31;4998096;28;20046;-71
2022/06/01 09:50:27;;;;;;;8.93;2.25;;;;;;;17.97;43.68;101090.63;4995651;28;20050;-72
2022/06/01 09:52:59;;;;;;;6.15;1.75;;;;;;;18.13;42.91;101083.13;4998198;28;20057;-71
2022/06/01 09:55:29;;;;;;;10.30;2.03;;;;;;;18.16;43.83;101081.59;5013209;28;20053;-72
2022/06/01 09:58:09;;;;;;;19.38;2.85;;;;;;;18.27;43.26;101082.72;4980560;28;20058;-71
2022/06/01 10:06:30;;;;;;;12.02;2.40;;;;;;;18.41;43.71;101072.78;4991055;28;20470;-65
2022/06/01 10:09:00;;;;;;;12.98;2.83;;;;;;;18.08;44.17;101090.94;4996754;28;20066;-64
2022/06/01 10:11:36;;;;;;;10.82;1.88;;;;;;;17.92;44.33;101088.09;4998325;28;20414;-65
2022/06/01 10:14:05;;;;;;;24.73;2.78;;;;;;;18.13;44.30;101083.13;4996306;28;20053;-65
2022/06/01 10:17:11;;;;;;;10.85;3.65;;;;;;;18.69;43.38;101067.94;4996496;28;20050;-66
2022/06/01 10:19:54;;;;;;;7.15;1.85;;;;;;;18.59;42.54;101076.84;4982919;28;20059;-64
2022/06/01 10:22:42;;;;;;;7.78;1.55;;;;;;;18.34;43.28;101074.53;4957850;28;20048;-64
2022/06/01 10:25:19;;;;;;;6.85;1.50;;;;;;;18.49;43.29;101082.16;4973263;28;20077;-64
2022/06/01 10:27:55;;;;;;;6.13;1.60;;;;;;;18.54;42.31;101079.09;4941338;29;20051;-68
2022/06/01 10:30:37;;;;;;;6.32;1.98;;;;;;;18.87;41.51;101076.78;4956666;29;20055;-66
2022/06/01 10:33:28;;;;;;;7.28;2.50;;;;;;;19.33;40.79;101069.56;4980149;28;20042;-65
2022/06/01 10:36:06;;;;;;;13.15;4.13;;;;;;;19.64;39.87;101058.28;4997017;28;20061;-64
2022/06/01 10:38:47;;;;;;;5.40;2.17;;;;;;;19.18;40.11;101062.78;5012123;28;20046;-65
2022/06/01 10:41:21;;;;;;;12.27;4.40;;;;;;;19.23;39.96;101059.72;4995381;28;20054;-65
2022/06/01 10:44:18;;;;;;;4.72;1.60;;;;;;;19.24;39.09;101077.28;4995887;28;20058;-65
2022/06/01 10:46:53;;;;;;;6.80;1.88;;;;;;;18.91;40.04;101072.94;4977751;28;20081;-65
2022/06/01 10:49:43;;;;;;;6.05;1.48;;;;;;;18.56;41.01;101057.22;4997136;28;20046;-66
2022/06/01 10:52:31;;;;;;;6.90;1.90;;;;;;;18.99;40.77;101054.34;4997049;28;20504;-64
2022/06/01 10:55:05;;;;;;;9.50;3.25;;;;;;;19.58;39.43;101057.75;4992877;28;20692;-65
2022/06/01 10:57:36;;;;;;;7.15;2.90;;;;;;;19.99;39.60;101048.69;4995794;28;20042;-64
2022/06/01 11:00:06;;;;;;;5.63;2.00;;;;;;;20.08;38.13;101060.44;4996918;28;20045;-65
2022/06/01 11:02:41;;;;;;;6.10;2.67;;;;;;;19.57;38.70;101049.75;4995812;28;20509;-66
2022/06/01 11:05:15;;;;;;;6.38;2.80;;;;;;;19.52;39.40;101039.69;4994362;28;20038;-65
2022/06/01 11:08:01;;;;;;;4.97;1.83;;;;;;;19.65;39.19;101038.34;4996260;28;20074;-64
2022/06/01 11:10:49;;;;;;;3.80;1.80;;;;;;;20.04;39.36;101042.78;4996499;28;20062;-64
2022/06/01 11:13:42;;;;;;;6.40;2.22;;;;;;;20.37;38.71;101036.66;4977896;28;20433;-65
2022/06/01 11:16:34;;;;;;;7.03;1.90;;;;;;;19.70;38.78;101046.44;4994463;28;20057;-64
2022/06/01 11:19:25;;;;;;;7.40;2.13;;;;;;;19.56;39.04;101043.34;4989705;28;20043;-66
2022/06/01 11:22:12;;;;;;;5.03;2.30;;;;;;;19.25;40.32;101037.81;4975322;28;20054;-64
2022/06/01 11:24:52;;;;;;;6.70;1.38;;;;;;;18.61;40.65;101043.84;4940239;29;20442;-65
2022/06/01 11:27:38;;;;;;;5.57;1.80;;;;;;;18.62;40.00;101044.66;4957279;28;20059;-65
2022/06/01 11:30:08;;;;;;;5.95;2.42;;;;;;;18.83;39.81;101040.41;4976987;28;20050;-65
2022/06/01 11:32:45;;;;;;;6.10;2.53;;;;;;;18.90;38.88;101040.56;4959160;28;20054;-66
2022/06/01 11:35:24;;;;;;;7.40;1.55;;;;;;;18.89;38.96;101030.59;4959697;28;20053;-64
2022/06/01 11:37:58;;;;;;;5.63;1.10;;;;;;;18.85;39.58;101017.69;4958337;28;20057;-64
2022/06/01 11:40:50;;;;;;;5.80;1.60;;;;;;;19.51;38.43;101038.03;4991074;28;20073;-65
2022/06/01 11:43:31;;;;;;;6.80;1.60;;;;;;;18.87;39.19;101032.94;4969421;28;20073;-65
2022/06/01 11:46:02;;;;;;;4.95;1.17;;;;;;;18.71;39.73;101037.72;4959135;28;20051;-65
2022/06/01 11:48:32;;;;;;;7.03;2.13;;;;;;;18.83;39.52;101026.44;4974995;28;20043;-64
2022/06/01 11:51:18;;;;;;;4.07;1.73;;;;;;;19.03;38.75;101032.91;4976442;28;20062;-65
2022/06/01 11:54:01;;;;;;;4.68;1.67;;;;;;;19.16;38.57;101020.44;4976541;28;20058;-64
2022/06/01 11:56:30;;;;;;;4.03;1.40;;;;;;;19.06;38.26;101010.66;4976196;28;20047;-64
2022/06/01 11:59:16;;;;;;;9.05;1.52;;;;;;;19.02;38.47;101018.13;4991124;28;20589;-67
2022/06/01 12:01:46;;;;;;;7.35;2.70;;;;;;;19.42;37.73;101019.88;4976112;28;20054;-64
2022/06/01 12:04:23;;;;;;;6.45;1.98;;;;;;;19.69;36.63;101008.50;4976032;28;20054;-64
2022/06/01 12:06:58;;;;;;;9.32;1.50;;;;;;;19.89;35.78;101017.72;4975872;28;20055;-65
2022/06/01 12:09:35;;;;;;;4.35;1.00;;;;;;;19.53;36.05;101018.94;4975832;28;20062;-64